Aviation WX

[Source: ADDS]
METAR
KFKL 120556Z AUTO 25004KT 3SM BR OVC010 M02/M03 A3004 RMK AO2 SNB0457E50 CIG 007V015 SLP190 P0000 60000 T10221033 11011 21022 51006 FZRANO =
KFKL 120520Z 1206/1306 VRB04KT 5SM BR OVC010 FM121400 15007KT P6SM BKN250 FM130300 16009KT P6SM OVC015
TAF
KFKL 120520Z 1206/1306 VRB04KT 5SM BR OVC010 FM121400 15007KT P6SM BKN250 FM130300 16009KT P6SM OVC015 =

Clarion Airport T-Shirts

small

Weather Maps

Weather Information

 An Automated Weather Observation System (AWOS IIIp) is installed at Clarion County Airport, which can be accessed on 118.275 Mhz, or by phone, 814-227-2899.



Dubois-Jefferson County (DUJ) and Venango Regional (FKL) are the closest airports  having weather reporting. (METAR's and TAF's) 



FKL AWOS    118.175 Mhz   814-437-2066
DUJ ASOS     119.025 Mhz   814-328-5140
                                                       





WebAWOS